Time;durP1;ratioP1;P1;durP2;ratioP2;P2;SDS_P1;SDS_P2;PMS_P1;PMS_P2;Temp;Humidity;BMP_temperature;BMP_pressure;BME280_temperature;BME280_humidity;BME280_pressure;Samples;Min_cycle;Max_cycle;Signal;HPM_P1;HPM_P2
2024/01/06 00:01:47;;;;;;;13.82;7.47;;;3.00;99.90;;;;;;5070332;28;20043;-79
2024/01/06 00:04:12;;;;;;;14.98;7.75;;;3.00;99.90;;;;;;5069790;28;20048;-80
2024/01/06 00:06:38;;;;;;;;;;;3.00;99.90;;;;;;5070286;28;20139;-80
2024/01/06 00:09:04;;;;;;;11.82;6.90;;;3.00;99.90;;;;;;5070026;28;19925;-80
2024/01/06 00:11:30;;;;;;;11.57;7.28;;;3.00;99.90;;;;;;5069682;28;20103;-80
2024/01/06 00:13:55;;;;;;;12.35;6.93;;;3.00;99.90;;;;;;5070070;28;20048;-80
2024/01/06 00:16:21;;;;;;;;;;;3.00;99.90;;;;;;5070763;28;20127;-80
2024/01/06 00:18:47;;;;;;;14.23;7.15;;;3.30;99.90;;;;;;5069566;28;19924;-80
2024/01/06 00:21:15;;;;;;;13.82;7.00;;;3.00;99.90;;;;;;5069486;28;20037;-80
2024/01/06 00:23:43;;;;;;;13.38;6.88;;;3.00;99.90;;;;;;5064750;28;20079;-80
2024/01/06 00:26:12;;;;;;;14.18;7.32;;;3.00;99.90;;;;;;5060193;28;20045;-80
2024/01/06 00:28:39;;;;;;;12.60;7.70;;;3.00;99.90;;;;;;5070444;28;20106;-80
2024/01/06 00:31:08;;;;;;;14.70;7.00;;;3.00;99.90;;;;;;5069926;28;20037;-80
2024/01/06 00:33:33;;;;;;;12.27;7.80;;;3.00;99.90;;;;;;5069643;28;20097;-80
2024/01/06 00:35:59;;;;;;;13.65;7.32;;;3.00;99.90;;;;;;5069605;28;20048;-80
2024/01/06 00:38:27;;;;;;;;;;;3.00;99.90;;;;;;5070460;28;20044;-80
2024/01/06 00:40:56;;;;;;;10.80;7.15;;;3.00;99.90;;;;;;5102949;28;19963;-80
2024/01/06 00:43:22;;;;;;;12.68;6.85;;;3.00;99.90;;;;;;5066344;28;20063;-80
2024/01/06 00:45:50;;;;;;;12.05;8.13;;;3.00;99.90;;;;;;5068507;28;20044;-80
2024/01/06 00:48:15;;;;;;;13.07;7.20;;;3.00;99.90;;;;;;5070175;28;20063;-80
2024/01/06 00:50:41;;;;;;;14.70;7.28;;;3.00;99.90;;;;;;5070570;28;20052;-80
2024/01/06 00:53:07;;;;;;;15.07;7.22;;;3.00;99.90;;;;;;5070092;28;20051;-80
2024/01/06 00:55:32;;;;;;;;;;;3.00;99.90;;;;;;5071574;28;20475;-80
2024/01/06 00:57:58;;;;;;;14.45;7.63;;;3.00;99.90;;;;;;5071298;28;19920;-80
2024/01/06 01:00:23;;;;;;;13.07;7.07;;;3.00;99.90;;;;;;5104080;28;20056;-80
2024/01/06 01:02:49;;;;;;;12.63;6.82;;;3.80;99.90;;;;;;5071231;28;20093;-80
2024/01/06 01:05:15;;;;;;;12.93;7.20;;;2.90;99.90;;;;;;5070267;28;20131;-80
2024/01/06 01:07:40;;;;;;;11.40;7.45;;;2.90;99.90;;;;;;5070213;28;20048;-80
2024/01/06 01:10:06;;;;;;;15.38;7.28;;;2.90;99.90;;;;;;5070792;28;20044;-81
2024/01/06 01:12:31;;;;;;;;;;;2.90;99.90;;;;;;5071823;28;20044;-81
2024/01/06 01:14:57;;;;;;;12.75;7.10;;;3.40;99.90;;;;;;5070104;28;19920;-80
2024/01/06 01:17:23;;;;;;;14.18;7.45;;;2.90;99.90;;;;;;5070447;28;20411;-81
2024/01/06 01:19:48;;;;;;;;;;;2.90;99.90;;;;;;5071714;28;20158;-82
2024/01/06 01:22:14;;;;;;;13.52;7.30;;;2.90;99.90;;;;;;5070169;28;20299;-82
2024/01/06 01:24:42;;;;;;;13.30;7.57;;;3.00;99.90;;;;;;5071078;28;20048;-81
2024/01/06 01:27:08;;;;;;;14.77;7.45;;;3.00;99.90;;;;;;5070654;28;20072;-81
2024/01/06 01:29:34;;;;;;;12.98;7.43;;;3.00;99.90;;;;;;5069607;28;20045;-81
2024/01/06 01:32:00;;;;;;;14.77;6.82;;;3.00;99.90;;;;;;5070830;28;20033;-81
2024/01/06 01:34:26;;;;;;;13.40;7.20;;;3.00;99.90;;;;;;5104528;28;20041;-81
2024/01/06 01:36:54;;;;;;;14.63;7.15;;;3.00;99.90;;;;;;5070036;28;20045;-81
2024/01/06 01:39:20;;;;;;;14.88;6.72;;;3.00;99.90;;;;;;5104353;28;20680;-81
2024/01/06 01:41:45;;;;;;;12.40;6.60;;;3.00;99.90;;;;;;5071126;28;20041;-82
2024/01/06 01:44:11;;;;;;;;;;;3.00;99.90;;;;;;5069991;28;20028;-81
2024/01/06 01:46:37;;;;;;;13.35;6.60;;;2.90;99.90;;;;;;5070394;28;19927;-81
2024/01/06 01:49:04;;;;;;;10.93;6.03;;;2.90;99.90;;;;;;5069628;28;20071;-81
2024/01/06 01:51:33;;;;;;;10.88;6.30;;;3.00;99.90;;;;;;5070571;28;20080;-81
2024/01/06 01:54:01;;;;;;;12.30;6.95;;;2.90;99.90;;;;;;5070377;28;20404;-81
2024/01/06 01:56:27;;;;;;;12.10;6.78;;;2.90;99.90;;;;;;5069905;28;20089;-81
2024/01/06 01:58:53;;;;;;;13.95;7.13;;;2.90;99.90;;;;;;5070327;28;20238;-81
2024/01/06 02:01:19;;;;;;;12.02;7.53;;;2.90;99.90;;;;;;5073468;28;20488;-81
2024/01/06 02:03:45;;;;;;;17.80;7.32;;;3.00;99.90;;;;;;5073310;28;20177;-81
2024/01/06 02:06:12;;;;;;;14.80;7.30;;;2.90;99.90;;;;;;5073274;28;20044;-81
2024/01/06 02:08:37;;;;;;;14.50;7.65;;;2.90;99.90;;;;;;5073751;28;20055;-81
2024/01/06 02:11:04;;;;;;;15.15;7.60;;;2.90;99.90;;;;;;5072383;28;20044;-81
2024/01/06 02:13:37;;;;;;;13.48;6.82;;;2.90;99.90;;;;;;5074054;28;20048;-81
2024/01/06 02:16:04;;;;;;;17.08;7.78;;;3.00;99.90;;;;;;5073652;28;20044;-81
2024/01/06 02:18:30;;;;;;;13.50;7.30;;;3.00;99.90;;;;;;5072981;28;20074;-81
2024/01/06 02:20:59;;;;;;;11.68;7.05;;;3.00;99.90;;;;;;5073854;28;20245;-81
2024/01/06 02:23:24;;;;;;;17.00;8.85;;;3.60;99.90;;;;;;5073673;28;20044;-81
2024/01/06 02:25:50;;;;;;;15.43;8.00;;;3.00;99.90;;;;;;5073223;28;20439;-81
2024/01/06 02:28:16;;;;;;;12.95;7.63;;;3.00;99.90;;;;;;5073641;28;20506;-81
2024/01/06 02:30:41;;;;;;;11.50;6.85;;;3.00;99.90;;;;;;5073437;28;20045;-81
2024/01/06 02:33:07;;;;;;;12.95;6.95;;;3.00;99.90;;;;;;5072357;28;20076;-81
2024/01/06 02:35:32;;;;;;;;;;;3.00;99.90;;;;;;5073814;28;20037;-81
2024/01/06 02:37:58;;;;;;;16.13;7.20;;;3.00;99.90;;;;;;5107358;28;19924;-81
2024/01/06 02:40:24;;;;;;;14.48;7.07;;;3.30;99.90;;;;;;5072631;28;20043;-80
2024/01/06 02:42:49;;;;;;;10.90;6.95;;;3.30;99.90;;;;;;5073712;28;20041;-81
2024/01/06 02:45:15;;;;;;;;;;;3.10;99.90;;;;;;5072809;28;20041;-81
2024/01/06 02:47:40;;;;;;;13.75;7.07;;;3.10;99.90;;;;;;5073239;28;20144;-81
2024/01/06 02:50:06;;;;;;;12.02;7.53;;;3.10;99.90;;;;;;5072612;28;20105;-81
2024/01/06 02:52:32;;;;;;;12.68;6.97;;;3.10;99.90;;;;;;5072447;28;20593;-81
2024/01/06 02:54:58;;;;;;;12.30;6.95;;;3.20;99.90;;;;;;5072929;28;20082;-81
2024/01/06 02:57:23;;;;;;;;;;;3.20;99.90;;;;;;5073695;28;20045;-81
2024/01/06 02:59:49;;;;;;;17.25;7.72;;;3.20;99.90;;;;;;5072275;28;20359;-81
2024/01/06 03:02:14;;;;;;;12.02;6.82;;;3.20;99.90;;;;;;5072641;28;20036;-81
2024/01/06 03:04:40;;;;;;;;;;;3.20;99.90;;;;;;5073406;28;20040;-81
2024/01/06 03:07:06;;;;;;;11.30;6.47;;;3.20;99.90;;;;;;5071295;28;20012;-80
2024/01/06 03:09:31;;;;;;;;;;;3.20;99.90;;;;;;5073285;28;20076;-80
2024/01/06 03:11:57;;;;;;;12.05;6.78;;;3.20;99.90;;;;;;5072496;28;19920;-79
2024/01/06 03:14:23;;;;;;;10.27;6.40;;;3.20;99.90;;;;;;5105353;28;20098;-80
2024/01/06 03:16:48;;;;;;;9.75;6.28;;;3.20;99.90;;;;;;5072302;28;20041;-80
2024/01/06 03:19:14;;;;;;;;;;;3.20;99.90;;;;;;5072695;28;20458;-80
2024/01/06 03:21:40;;;;;;;13.50;6.47;;;3.20;99.90;;;;;;5072017;28;19974;-80
2024/01/06 03:24:07;;;;;;;9.38;5.50;;;3.20;99.90;;;;;;5072022;28;20087;-80
2024/01/06 03:26:33;;;;;;;13.45;6.15;;;3.20;99.90;;;;;;5071964;28;20079;-81
2024/01/06 03:28:59;;;;;;;11.20;5.65;;;3.20;99.90;;;;;;5070995;28;20080;-80
2024/01/06 03:31:25;;;;;;;9.45;6.03;;;3.30;99.90;;;;;;5071590;28;20075;-81
2024/01/06 03:33:53;;;;;;;11.52;6.05;;;3.30;99.90;;;;;;5072516;28;20083;-80
2024/01/06 03:36:19;;;;;;;14.45;6.35;;;3.30;99.90;;;;;;5067906;28;20056;-81
2024/01/06 03:38:47;;;;;;;13.90;7.13;;;3.30;99.90;;;;;;5071723;28;20048;-81
2024/01/06 03:41:13;;;;;;;10.73;6.10;;;3.30;99.90;;;;;;5072322;28;20436;-81
2024/01/06 03:43:39;;;;;;;12.45;6.20;;;3.30;99.90;;;;;;5072202;28;20073;-81
2024/01/06 03:46:05;;;;;;;;;;;3.30;99.90;;;;;;5072170;28;20040;-81
2024/01/06 03:48:31;;;;;;;12.10;7.10;;;3.70;99.90;;;;;;5071229;28;20391;-81
2024/01/06 03:50:59;;;;;;;11.90;6.78;;;3.30;99.90;;;;;;5071884;28;20055;-81
2024/01/06 03:53:24;;;;;;;13.98;7.40;;;3.30;99.90;;;;;;5072038;28;20135;-81
2024/01/06 03:55:50;;;;;;;14.00;7.15;;;3.30;99.90;;;;;;5070873;28;20206;-81
2024/01/06 03:58:16;;;;;;;13.85;7.25;;;3.30;99.90;;;;;;5071749;28;20052;-80
2024/01/06 04:00:41;;;;;;;12.02;6.90;;;3.30;99.90;;;;;;5071777;28;20476;-81
2024/01/06 04:03:08;;;;;;;12.25;7.13;;;3.30;99.90;;;;;;5070785;28;20106;-81
2024/01/06 04:05:33;;;;;;;11.07;6.90;;;3.30;99.90;;;;;;5071377;28;20055;-81
2024/01/06 04:07:59;;;;;;;11.75;6.95;;;3.30;99.90;;;;;;5071852;28;20127;-81
2024/01/06 04:10:24;;;;;;;;;;;3.30;99.90;;;;;;5071422;28;20369;-81
2024/01/06 04:12:50;;;;;;;12.48;7.07;;;3.30;99.90;;;;;;5071711;28;19920;-81
2024/01/06 04:15:16;;;;;;;;;;;3.20;99.90;;;;;;5071546;28;20504;-81
2024/01/06 04:17:41;;;;;;;17.40;8.20;;;3.30;99.90;;;;;;5071337;28;20280;-81
2024/01/06 04:20:07;;;;;;;;;;;3.20;99.90;;;;;;5072035;28;20048;-80
2024/01/06 04:22:33;;;;;;;12.27;6.82;;;3.30;99.90;;;;;;5071120;28;19920;-81
2024/01/06 04:24:59;;;;;;;11.13;7.20;;;3.30;99.90;;;;;;5070735;28;20066;-80
2024/01/06 04:27:24;;;;;;;18.75;7.25;;;3.30;99.90;;;;;;5071777;28;20040;-81
2024/01/06 04:29:52;;;;;;;11.85;7.18;;;3.30;99.90;;;;;;5071168;28;20040;-81
2024/01/06 04:32:18;;;;;;;10.85;7.20;;;3.30;99.90;;;;;;5070382;28;20040;-81
2024/01/06 04:34:44;;;;;;;13.77;6.88;;;3.30;99.90;;;;;;5071064;28;20044;-81
2024/01/06 04:37:09;;;;;;;13.60;6.78;;;3.30;99.90;;;;;;5070990;28;20036;-81
2024/01/06 04:39:35;;;;;;;;;;;3.20;99.90;;;;;;5070968;28;20051;-81
2024/01/06 04:42:00;;;;;;;13.02;6.55;;;3.20;99.90;;;;;;5071334;28;20366;-81
2024/01/06 04:44:26;;;;;;;;;;;3.30;99.90;;;;;;5071684;28;20040;-81
2024/01/06 04:46:52;;;;;;;11.85;6.15;;;3.30;99.90;;;;;;5070611;28;19921;-80
2024/01/06 04:49:17;;;;;;;13.75;7.13;;;3.20;99.90;;;;;;5070917;28;20051;-80
2024/01/06 04:51:46;;;;;;;;;;;3.20;99.90;;;;;;5070924;28;20049;-80
2024/01/06 04:54:12;;;;;;;14.45;6.93;;;3.20;99.90;;;;;;5070118;28;20334;-80
2024/01/06 04:56:38;;;;;;;13.43;6.90;;;3.20;99.90;;;;;;5071446;28;20044;-81
2024/01/06 04:59:03;;;;;;;18.02;7.20;;;3.20;99.90;;;;;;5069864;28;20062;-80
2024/01/06 05:01:29;;;;;;;15.05;7.07;;;3.20;99.90;;;;;;5071225;28;20045;-80
2024/01/06 05:03:55;;;;;;;14.40;7.15;;;3.10;99.90;;;;;;5071184;28;20073;-80
2024/01/06 05:06:23;;;;;;;13.10;6.90;;;3.80;99.90;;;;;;5070005;28;20045;-80
2024/01/06 05:08:49;;;;;;;13.40;7.30;;;3.10;99.90;;;;;;5071178;28;20075;-80
2024/01/06 05:11:14;;;;;;;11.32;6.35;;;3.10;99.90;;;;;;5071114;28;20087;-80
2024/01/06 05:13:43;;;;;;;17.50;7.03;;;3.10;99.90;;;;;;5070587;28;20044;-80
2024/01/06 05:16:08;;;;;;;14.32;8.77;;;3.20;99.90;;;;;;5070797;28;20048;-80
2024/01/06 05:18:34;;;;;;;14.48;6.90;;;3.10;99.90;;;;;;5071136;28;20095;-81
2024/01/06 05:21:01;;;;;;;17.38;7.03;;;3.10;99.90;;;;;;5071084;28;20492;-80
2024/01/06 05:23:27;;;;;;;14.68;6.85;;;3.10;99.90;;;;;;5070933;28;20126;-81
2024/01/06 05:25:53;;;;;;;16.33;7.15;;;3.10;99.90;;;;;;5070856;28;20088;-81
2024/01/06 05:28:18;;;;;;;;;;;3.10;99.90;;;;;;5070365;28;20511;-81
2024/01/06 05:30:44;;;;;;;15.95;6.80;;;3.00;99.90;;;;;;5071061;28;19968;-81
2024/01/06 05:33:12;;;;;;;11.55;6.15;;;3.10;99.90;;;;;;5070635;28;20041;-81
2024/01/06 05:35:38;;;;;;;13.63;7.22;;;3.10;99.90;;;;;;5073532;28;20036;-81
2024/01/06 05:38:04;;;;;;;13.65;7.03;;;3.10;99.90;;;;;;5074203;28;20177;-81
2024/01/06 05:40:32;;;;;;;14.50;7.07;;;3.00;99.90;;;;;;5074623;28;20495;-81
2024/01/06 05:42:58;;;;;;;15.88;7.50;;;3.10;99.90;;;;;;5105487;28;20429;-81
2024/01/06 05:45:23;;;;;;;15.10;7.32;;;3.10;99.90;;;;;;5074825;28;20079;-80
2024/01/06 05:47:49;;;;;;;15.63;7.20;;;3.00;99.90;;;;;;5074825;28;20106;-80
2024/01/06 05:50:15;;;;;;;;;;;3.10;99.90;;;;;;5073618;28;20140;-81
2024/01/06 05:52:41;;;;;;;14.73;6.55;;;3.00;99.90;;;;;;5074326;28;20018;-80
2024/01/06 05:55:07;;;;;;;11.82;6.32;;;3.00;99.90;;;;;;5073452;28;20481;-81
2024/01/06 05:57:33;;;;;;;12.90;7.05;;;3.00;99.90;;;;;;5073730;28;20125;-81
2024/01/06 05:59:59;;;;;;;15.60;6.97;;;3.00;99.90;;;;;;5073941;28;20125;-81
2024/01/06 06:02:25;;;;;;;16.55;7.43;;;3.00;99.90;;;;;;5073531;28;20044;-80
2024/01/06 06:04:52;;;;;;;15.20;7.53;;;3.00;99.90;;;;;;5074262;28;20453;-80
2024/01/06 06:07:18;;;;;;;11.57;7.00;;;3.00;99.90;;;;;;5075288;28;20098;-80
2024/01/06 06:09:46;;;;;;;14.85;6.82;;;3.00;99.90;;;;;;5073676;28;20058;-80
2024/01/06 06:12:12;;;;;;;11.65;6.38;;;3.00;99.90;;;;;;5073735;28;20041;-80
2024/01/06 06:14:47;;;;;;;20.10;6.80;;;3.00;99.90;;;;;;5073777;28;20066;-80
2024/01/06 06:17:13;;;;;;;16.20;7.40;;;3.10;99.90;;;;;;5073268;28;20445;-80
2024/01/06 06:19:38;;;;;;;20.15;7.00;;;3.10;99.90;;;;;;5075224;28;20084;-80
2024/01/06 06:22:04;;;;;;;14.20;6.15;;;3.10;99.90;;;;;;5074855;28;20491;-80
2024/01/06 06:24:30;;;;;;;14.77;6.80;;;3.10;99.90;;;;;;5072365;28;20041;-80
2024/01/06 06:26:55;;;;;;;13.77;6.93;;;3.00;99.90;;;;;;5073787;28;20055;-81
2024/01/06 06:29:21;;;;;;;14.20;6.95;;;3.10;99.90;;;;;;5073683;28;20051;-80
2024/01/06 06:31:46;;;;;;;;;;;3.10;99.90;;;;;;5073404;28;20053;-81
2024/01/06 06:34:12;;;;;;;10.90;6.50;;;3.10;99.90;;;;;;5072635;28;19920;-81
2024/01/06 06:36:38;;;;;;;15.73;6.43;;;3.10;99.90;;;;;;5073854;28;20391;-81
2024/01/06 06:39:04;;;;;;;;;;;3.10;99.90;;;;;;5072891;28;20056;-81
2024/01/06 06:41:30;;;;;;;16.23;6.80;;;3.10;99.90;;;;;;5073765;28;20371;-81
2024/01/06 06:43:57;;;;;;;16.92;7.03;;;3.10;99.90;;;;;;5073476;28;20051;-81
2024/01/06 06:46:23;;;;;;;16.90;7.10;;;3.10;99.90;;;;;;5071887;28;20045;-80
2024/01/06 06:48:52;;;;;;;15.05;6.65;;;3.10;99.90;;;;;;5073252;28;20058;-80
2024/01/06 06:51:18;;;;;;;14.05;6.82;;;3.10;99.90;;;;;;5071979;28;20057;-80
2024/01/06 06:53:43;;;;;;;13.63;6.50;;;3.10;99.90;;;;;;5072382;28;20105;-80
2024/01/06 06:56:09;;;;;;;15.23;6.45;;;3.10;99.90;;;;;;5072964;28;20396;-80
2024/01/06 06:58:35;;;;;;;;;;;3.10;99.90;;;;;;5072758;28;20079;-80
2024/01/06 07:01:00;;;;;;;12.23;7.60;;;3.10;99.90;;;;;;5072110;28;19956;-81
2024/01/06 07:03:26;;;;;;;14.07;6.88;;;3.10;99.90;;;;;;5072870;28;20079;-80
2024/01/06 07:05:52;;;;;;;11.27;6.40;;;3.10;99.90;;;;;;5072507;28;20086;-81
2024/01/06 07:08:18;;;;;;;;;;;3.10;99.90;;;;;;5073160;28;20416;-81
2024/01/06 07:10:43;;;;;;;14.52;6.38;;;3.10;99.90;;;;;;5072912;28;19924;-80
2024/01/06 07:13:09;;;;;;;14.20;6.88;;;3.20;99.90;;;;;;5072124;28;20431;-81
2024/01/06 07:15:35;;;;;;;13.40;6.78;;;3.10;99.90;;;;;;5073937;28;20498;-80
2024/01/06 07:18:00;;;;;;;;;;;3.20;99.90;;;;;;5072846;28;20051;-80
2024/01/06 07:20:26;;;;;;;17.65;7.13;;;3.20;99.90;;;;;;5072144;28;19928;-80
2024/01/06 07:22:51;;;;;;;;;;;3.10;99.90;;;;;;5073035;28;20491;-80
2024/01/06 07:25:17;;;;;;;15.00;7.15;;;3.10;99.90;;;;;;5072203;28;20062;-80
2024/01/06 07:27:42;;;;;;;13.43;7.35;;;3.10;99.90;;;;;;5072110;28;20127;-80
2024/01/06 07:30:08;;;;;;;;;;;3.10;99.90;;;;;;5072651;28;20460;-80
2024/01/06 07:32:34;;;;;;;14.52;7.25;;;3.20;99.90;;;;;;5072431;28;19928;-80
2024/01/06 07:34:59;;;;;;;;;;;3.10;99.90;;;;;;5071415;28;20053;-80
2024/01/06 07:37:25;;;;;;;14.18;7.45;;;3.80;99.90;;;;;;5071911;28;19974;-80
2024/01/06 07:39:51;;;;;;;13.85;7.10;;;3.10;99.90;;;;;;5072013;28;20480;-80
2024/01/06 07:42:17;;;;;;;;;;;3.20;99.90;;;;;;5071281;28;20083;-80
2024/01/06 07:44:44;;;;;;;16.70;8.10;;;3.20;99.90;;;;;;5072146;28;19920;-80
2024/01/06 07:47:10;;;;;;;15.13;7.97;;;3.20;99.90;;;;;;5071449;28;20430;-79
2024/01/06 07:49:35;;;;;;;14.45;7.78;;;3.20;99.90;;;;;;5071419;28;20106;-80
2024/01/06 07:52:02;;;;;;;11.70;7.55;;;3.20;99.90;;;;;;5071752;28;20060;-80
2024/01/06 07:54:28;;;;;;;13.23;7.55;;;3.20;99.90;;;;;;5072017;28;20044;-80
2024/01/06 07:56:53;;;;;;;;;;;3.20;99.90;;;;;;5070777;28;20048;-80
2024/01/06 07:59:19;;;;;;;12.60;7.75;;;3.20;99.90;;;;;;5071357;28;20437;-80
2024/01/06 08:01:45;;;;;;;12.35;7.22;;;3.20;99.90;;;;;;5071147;28;20090;-80
2024/01/06 08:04:10;;;;;;;;;;;3.20;99.90;;;;;;5071767;28;20044;-80
2024/01/06 08:06:36;;;;;;;15.15;8.43;;;3.20;99.90;;;;;;5071531;28;19939;-80
2024/01/06 08:09:03;;;;;;;;;;;3.20;99.90;;;;;;5071063;28;20094;-80
2024/01/06 08:11:29;;;;;;;12.52;7.40;;;3.20;99.90;;;;;;5071638;28;19920;-80
2024/01/06 08:13:54;;;;;;;11.73;7.43;;;3.20;99.90;;;;;;5071234;28;20036;-80
2024/01/06 08:16:20;;;;;;;12.98;6.63;;;3.60;99.90;;;;;;5070029;28;20048;-80
2024/01/06 08:18:46;;;;;;;13.85;7.30;;;3.30;99.90;;;;;;5070074;28;20048;-80
2024/01/06 08:21:12;;;;;;;14.85;7.72;;;3.30;99.90;;;;;;5070907;28;20395;-80
2024/01/06 08:23:38;;;;;;;;;;;3.30;99.90;;;;;;5070871;28;20052;-80
2024/01/06 08:26:04;;;;;;;10.45;7.65;;;3.30;99.90;;;;;;5070945;28;19924;-80
2024/01/06 08:28:30;;;;;;;9.48;7.13;;;3.30;99.90;;;;;;5071406;28;20400;-80
2024/01/06 08:30:56;;;;;;;14.95;8.32;;;3.40;99.90;;;;;;5070416;28;20048;-80
2024/01/06 08:33:21;;;;;;;11.93;7.20;;;3.60;99.90;;;;;;5071190;28;20086;-80
2024/01/06 08:35:48;;;;;;;14.90;7.05;;;3.40;99.90;;;;;;5071809;28;20044;-80
2024/01/06 08:38:14;;;;;;;10.57;7.10;;;3.30;99.90;;;;;;5070408;28;20044;-80
2024/01/06 08:40:40;;;;;;;10.75;7.63;;;3.40;99.90;;;;;;5071077;28;20480;-80
2024/01/06 08:43:09;;;;;;;12.30;7.20;;;3.40;99.90;;;;;;5071234;28;20033;-79
2024/01/06 08:45:35;;;;;;;12.18;6.72;;;3.40;99.90;;;;;;5070486;28;20563;-80
2024/01/06 08:48:00;;;;;;;9.50;6.30;;;3.40;99.90;;;;;;5070905;28;20135;-80
2024/01/06 08:50:26;;;;;;;12.70;7.05;;;3.40;99.90;;;;;;5070626;28;20041;-79
2024/01/06 08:52:52;;;;;;;13.35;7.00;;;3.30;99.90;;;;;;5070300;28;20041;-79
2024/01/06 08:55:17;;;;;;;11.00;6.70;;;3.40;99.90;;;;;;5070916;28;20072;-80
2024/01/06 08:57:43;;;;;;;12.52;7.18;;;3.40;99.90;;;;;;5071070;28;20053;-80
2024/01/06 09:00:10;;;;;;;;;;;3.30;99.90;;;;;;5070613;28;20048;-80
2024/01/06 09:02:36;;;;;;;13.13;7.35;;;3.30;99.90;;;;;;5071044;28;19971;-78
2024/01/06 09:05:01;;;;;;;15.05;8.18;;;3.30;99.90;;;;;;5069937;28;20154;-80
2024/01/06 09:07:27;;;;;;;;;;;3.30;99.90;;;;;;5070711;28;20056;-80
2024/01/06 09:09:52;;;;;;;12.25;7.85;;;3.30;99.90;;;;;;5073638;28;19920;-80
2024/01/06 09:12:18;;;;;;;16.13;7.80;;;3.30;99.90;;;;;;5074314;28;20044;-83
2024/01/06 09:14:43;;;;;;;;;;;3.30;99.90;;;;;;5075697;28;20139;-83
2024/01/06 09:17:09;;;;;;;16.92;7.60;;;3.50;99.90;;;;;;5076071;28;19928;-85
2024/01/06 09:19:35;;;;;;;;;;;3.30;99.90;;;;;;5074599;28;20048;-84
2024/01/06 09:22:00;;;;;;;11.15;7.45;;;3.80;99.90;;;;;;5074778;28;19920;-81
2024/01/06 09:24:26;;;;;;;13.88;8.05;;;3.30;99.90;;;;;;5074677;28;20138;-81
2024/01/06 09:26:51;;;;;;;12.75;7.55;;;3.30;99.90;;;;;;5074142;28;20131;-78
2024/01/06 09:29:17;;;;;;;;;;;3.30;99.90;;;;;;5074951;28;20059;-88
2024/01/06 09:31:43;;;;;;;11.32;6.93;;;3.30;99.90;;;;;;5075203;28;19938;-87
2024/01/06 09:34:10;;;;;;;13.10;7.00;;;3.40;99.90;;;;;;5074539;28;20374;-92
2024/01/06 09:36:35;;;;;;;13.32;7.22;;;3.40;99.90;;;;;;5074843;28;20078;-87
2024/01/06 09:39:01;;;;;;;12.27;6.72;;;3.30;99.90;;;;;;5074263;28;20049;-82
2024/01/06 09:41:27;;;;;;;13.40;7.22;;;3.30;99.90;;;;;;5074106;28;20123;-81
2024/01/06 09:43:53;;;;;;;13.07;7.25;;;3.30;99.90;;;;;;5074415;28;20491;-83
2024/01/06 09:46:29;;;;;;;15.98;7.43;;;3.30;99.90;;;;;;5074316;28;20067;-80
2024/01/06 09:48:56;;;;;;;13.40;6.88;;;4.20;99.90;;;;;;5074099;28;20505;-82
2024/01/06 09:51:22;;;;;;;12.90;7.22;;;4.20;99.90;;;;;;5074257;28;20052;-83
2024/01/06 09:53:59;;;;;;;14.43;6.93;;;3.30;99.90;;;;;;5074157;28;20049;-88
2024/01/06 09:56:26;;;;;;;11.68;7.40;;;3.30;99.90;;;;;;5074506;28;20048;-79
2024/01/06 09:58:52;;;;;;;16.50;7.95;;;3.30;99.90;;;;;;5074174;28;20511;-82
2024/01/06 10:01:18;;;;;;;13.55;8.18;;;3.30;99.90;;;;;;5073200;28;20040;-85
2024/01/06 10:03:47;;;;;;;15.02;8.13;;;3.30;99.90;;;;;;5074721;28;20427;-84
2024/01/06 10:06:17;;;;;;;15.45;8.10;;;3.30;99.90;;;;;;5074250;28;20075;-85
2024/01/06 10:08:50;;;;;;;14.70;7.72;;;3.30;99.90;;;;;;5072963;28;20484;-79
2024/01/06 10:11:16;;;;;;;17.15;7.85;;;4.00;99.90;;;;;;5071720;28;20048;-83
2024/01/06 10:13:42;;;;;;;16.23;9.20;;;3.30;99.90;;;;;;5073605;28;20404;-82
2024/01/06 10:16:08;;;;;;;14.15;8.73;;;3.40;99.90;;;;;;5072883;28;20057;-83
2024/01/06 10:18:35;;;;;;;14.25;8.43;;;3.40;99.90;;;;;;5073129;28;20051;-76
2024/01/06 10:21:05;;;;;;;15.23;9.73;;;3.30;99.90;;;;;;5072325;28;20052;-85
2024/01/06 10:23:32;;;;;;;17.85;9.18;;;3.30;99.90;;;;;;5073320;28;20060;-77
2024/01/06 10:25:58;;;;;;;16.33;8.15;;;3.40;99.90;;;;;;5068108;28;20051;-73
2024/01/06 10:28:25;;;;;;;15.88;7.97;;;3.40;99.90;;;;;;5072997;28;20080;-78
2024/01/06 10:30:54;;;;;;;11.80;7.63;;;3.40;99.90;;;;;;5073142;28;20131;-75
2024/01/06 10:33:22;;;;;;;13.77;8.18;;;3.40;99.90;;;;;;5072760;28;20436;-72
2024/01/06 10:35:52;;;;;;;15.07;8.27;;;3.40;99.90;;;;;;5073855;28;20139;-75
2024/01/06 10:38:18;;;;;;;15.80;8.40;;;3.40;99.90;;;;;;5072790;28;20131;-89
2024/01/06 10:41:07;;;;;;;16.20;8.85;;;3.40;99.90;;;;;;5073832;28;20144;-82
2024/01/06 10:43:38;;;;;;;17.50;8.30;;;3.40;99.90;;;;;;5072399;28;20472;-84
2024/01/06 10:46:10;;;;;;;16.88;8.18;;;3.40;99.90;;;;;;5071898;28;20044;-89
2024/01/06 10:48:38;;;;;;;15.55;8.85;;;3.50;99.90;;;;;;5072797;28;20059;-86
2024/01/06 10:51:07;;;;;;;15.00;8.25;;;4.60;99.90;;;;;;5071389;28;20546;-85
2024/01/06 10:53:35;;;;;;;14.65;8.65;;;3.40;99.90;;;;;;5071729;28;20044;-80
2024/01/06 10:56:02;;;;;;;15.52;7.82;;;3.50;99.90;;;;;;5072598;28;20040;-77
2024/01/06 10:58:33;;;;;;;15.60;8.23;;;3.40;99.90;;;;;;5052553;28;20087;-78
2024/01/06 11:00:59;;;;;;;13.45;7.68;;;3.50;99.90;;;;;;5052943;28;20072;-75
2024/01/06 11:03:28;;;;;;;13.13;7.53;;;3.50;99.90;;;;;;5070235;28;20127;-79
2024/01/06 11:05:54;;;;;;;13.63;8.20;;;3.50;99.90;;;;;;5064973;28;20400;-79
2024/01/06 11:08:21;;;;;;;16.95;8.10;;;3.90;99.90;;;;;;5070600;28;20040;-80
2024/01/06 11:10:48;;;;;;;13.07;8.10;;;3.40;99.90;;;;;;5071431;28;20041;-84
2024/01/06 11:13:22;;;;;;;14.10;8.45;;;3.50;99.90;;;;;;5070185;28;20082;-79
2024/01/06 11:15:50;;;;;;;15.77;8.32;;;3.40;99.90;;;;;;5072800;28;20044;-79
2024/01/06 11:18:37;;;;;;;18.50;8.50;;;3.40;99.90;;;;;;5070492;28;20041;-76
2024/01/06 11:21:14;;;;;;;16.45;8.25;;;3.40;99.90;;;;;;5068179;28;20048;-79
2024/01/06 11:23:40;;;;;;;14.25;8.32;;;3.40;99.90;;;;;;5068703;28;20404;-84
2024/01/06 11:26:06;;;;;;;15.00;8.13;;;3.40;99.90;;;;;;5070002;28;20110;-83
2024/01/06 11:28:47;;;;;;;16.20;8.07;;;3.40;99.90;;;;;;5093723;28;20041;-82
2024/01/06 11:31:13;;;;;;;13.77;8.30;;;3.40;99.90;;;;;;5051694;28;20454;-78
2024/01/06 11:33:48;;;;;;;17.45;8.63;;;3.50;99.90;;;;;;5054006;28;20082;-80
2024/01/06 11:36:19;;;;;;;16.63;8.15;;;3.50;99.90;;;;;;5099558;28;20463;-78
2024/01/06 11:38:50;;;;;;;16.92;8.25;;;3.50;99.90;;;;;;5071922;28;20040;-74
2024/01/06 11:41:51;;;;;;;14.02;7.57;;;3.40;99.90;;;;;;5067557;28;20131;-76
2024/01/06 11:44:23;;;;;;;14.23;8.07;;;3.50;99.90;;;;;;5070859;28;20044;-78
2024/01/06 11:46:51;;;;;;;13.88;7.57;;;3.40;99.90;;;;;;5071975;28;20043;-76
2024/01/06 11:49:20;;;;;;;16.20;7.50;;;3.40;99.90;;;;;;5070615;28;20080;-79
2024/01/06 11:51:46;;;;;;;14.95;7.90;;;3.40;99.90;;;;;;5071095;28;20147;-75
2024/01/06 11:54:13;;;;;;;12.10;7.78;;;3.40;99.90;;;;;;5069574;28;20128;-73
2024/01/06 11:56:39;;;;;;;11.48;7.85;;;3.40;99.90;;;;;;5071061;28;20072;-77
2024/01/06 11:59:06;;;;;;;12.57;7.15;;;3.40;99.90;;;;;;5064396;28;20044;-77
2024/01/06 12:01:38;;;;;;;12.88;6.93;;;3.40;99.90;;;;;;5068933;28;20453;-76
2024/01/06 12:04:05;;;;;;;12.20;7.63;;;3.40;99.90;;;;;;5071159;28;20395;-73
2024/01/06 12:06:31;;;;;;;13.57;7.95;;;3.40;99.90;;;;;;5071059;28;20054;-77
2024/01/06 12:09:05;;;;;;;13.35;7.20;;;3.30;99.90;;;;;;5066184;28;20053;-79
2024/01/06 12:11:31;;;;;;;12.65;7.38;;;3.30;99.90;;;;;;5071146;28;20048;-74
2024/01/06 12:13:59;;;;;;;13.43;7.57;;;3.20;99.90;;;;;;5070334;28;20057;-72
2024/01/06 12:16:28;;;;;;;14.32;8.00;;;3.20;99.90;;;;;;5065475;28;20040;-74
2024/01/06 12:18:55;;;;;;;11.25;7.30;;;3.20;99.90;;;;;;5069752;28;20520;-71
2024/01/06 12:21:24;;;;;;;13.88;7.43;;;3.20;99.90;;;;;;5066637;28;20049;-72
2024/01/06 12:23:49;;;;;;;11.73;6.88;;;3.20;99.90;;;;;;5068591;28;20060;-70
2024/01/06 12:26:17;;;;;;;13.55;7.32;;;3.20;99.90;;;;;;5068875;28;20040;-71
2024/01/06 12:28:46;;;;;;;11.77;6.82;;;3.20;99.90;;;;;;5067139;28;20045;-72
2024/01/06 12:31:12;;;;;;;11.65;6.80;;;3.20;99.90;;;;;;5068877;28;20128;-68
2024/01/06 12:33:40;;;;;;;13.98;7.03;;;3.20;99.90;;;;;;5070929;28;20123;-69
2024/01/06 12:36:08;;;;;;;13.60;6.93;;;3.50;99.90;;;;;;5068984;28;20130;-68
2024/01/06 12:38:34;;;;;;;10.38;6.43;;;3.10;99.90;;;;;;5069693;28;20102;-70
2024/01/06 12:41:00;;;;;;;13.02;6.63;;;3.90;99.90;;;;;;5068267;28;20142;-71
2024/01/06 12:43:27;;;;;;;10.15;6.13;;;3.00;99.90;;;;;;5069339;28;20480;-72
2024/01/06 12:45:53;;;;;;;11.50;6.82;;;3.20;99.90;;;;;;5069041;28;20078;-71
2024/01/06 12:48:19;;;;;;;12.48;6.88;;;3.10;99.90;;;;;;5068366;28;20060;-70
2024/01/06 12:50:45;;;;;;;12.05;6.43;;;3.00;99.90;;;;;;5069245;28;20048;-71
2024/01/06 12:53:15;;;;;;;9.88;6.20;;;3.10;99.90;;;;;;5068713;28;20041;-78
2024/01/06 12:55:41;;;;;;;14.93;6.85;;;3.10;99.90;;;;;;5067252;28;20119;-72